sensor_id;sensor_type;location;lat;lon;timestamp;P1;durP1;ratioP1;P2;durP2;ratioP2
42018;SDS011;27703;51.980;5.848;2023-07-22T00:00:40;2.20;;;1.33;;
42018;SDS011;27703;51.980;5.848;2023-07-22T00:03:05;2.40;;;1.40;;
42018;SDS011;27703;51.980;5.848;2023-07-22T00:05:31;2.45;;;1.45;;
42018;SDS011;27703;51.980;5.848;2023-07-22T00:07:56;2.38;;;1.50;;
42018;SDS011;27703;51.980;5.848;2023-07-22T00:10:22;4.63;;;1.67;;
42018;SDS011;27703;51.980;5.848;2023-07-22T00:12:48;4.32;;;1.88;;
42018;SDS011;27703;51.980;5.848;2023-07-22T00:15:13;2.60;;;1.73;;
42018;SDS011;27703;51.980;5.848;2023-07-22T00:17:39;3.03;;;1.75;;
42018;SDS011;27703;51.980;5.848;2023-07-22T00:20:06;2.78;;;1.65;;
42018;SDS011;27703;51.980;5.848;2023-07-22T00:22:35;2.92;;;1.25;;
42018;SDS011;27703;51.980;5.848;2023-07-22T00:25:02;2.55;;;1.88;;
42018;SDS011;27703;51.980;5.848;2023-07-22T00:27:28;4.82;;;2.20;;
42018;SDS011;27703;51.980;5.848;2023-07-22T00:29:53;2.90;;;2.08;;
42018;SDS011;27703;51.980;5.848;2023-07-22T00:32:19;2.40;;;1.65;;
42018;SDS011;27703;51.980;5.848;2023-07-22T00:34:44;3.67;;;1.90;;
42018;SDS011;27703;51.980;5.848;2023-07-22T00:37:10;2.55;;;2.03;;
42018;SDS011;27703;51.980;5.848;2023-07-22T00:39:36;3.63;;;2.05;;
42018;SDS011;27703;51.980;5.848;2023-07-22T00:42:01;3.42;;;1.75;;
42018;SDS011;27703;51.980;5.848;2023-07-22T00:44:27;2.20;;;1.25;;
42018;SDS011;27703;51.980;5.848;2023-07-22T00:46:56;3.25;;;1.75;;
42018;SDS011;27703;51.980;5.848;2023-07-22T00:49:22;4.22;;;1.70;;
42018;SDS011;27703;51.980;5.848;2023-07-22T00:51:50;3.47;;;1.83;;
42018;SDS011;27703;51.980;5.848;2023-07-22T00:54:16;3.05;;;1.83;;
42018;SDS011;27703;51.980;5.848;2023-07-22T00:56:42;3.40;;;1.95;;
42018;SDS011;27703;51.980;5.848;2023-07-22T00:59:08;2.92;;;2.00;;
42018;SDS011;27703;51.980;5.848;2023-07-22T01:01:34;2.80;;;1.85;;
42018;SDS011;27703;51.980;5.848;2023-07-22T01:03:59;3.05;;;1.80;;
42018;SDS011;27703;51.980;5.848;2023-07-22T01:06:26;3.28;;;2.05;;
42018;SDS011;27703;51.980;5.848;2023-07-22T01:08:56;2.25;;;1.50;;
42018;SDS011;27703;51.980;5.848;2023-07-22T01:11:22;3.17;;;2.30;;
42018;SDS011;27703;51.980;5.848;2023-07-22T01:13:49;3.15;;;2.47;;
42018;SDS011;27703;51.980;5.848;2023-07-22T01:16:14;4.35;;;2.45;;
42018;SDS011;27703;51.980;5.848;2023-07-22T01:18:40;2.92;;;2.10;;
42018;SDS011;27703;51.980;5.848;2023-07-22T01:21:07;3.70;;;2.20;;
42018;SDS011;27703;51.980;5.848;2023-07-22T01:23:33;4.20;;;2.70;;
42018;SDS011;27703;51.980;5.848;2023-07-22T01:26:00;2.85;;;1.77;;
42018;SDS011;27703;51.980;5.848;2023-07-22T01:28:27;4.22;;;2.75;;
42018;SDS011;27703;51.980;5.848;2023-07-22T01:30:53;3.45;;;2.70;;
42018;SDS011;27703;51.980;5.848;2023-07-22T01:33:19;4.32;;;3.00;;
42018;SDS011;27703;51.980;5.848;2023-07-22T01:35:45;5.20;;;2.92;;
42018;SDS011;27703;51.980;5.848;2023-07-22T01:38:11;4.35;;;2.88;;
42018;SDS011;27703;51.980;5.848;2023-07-22T01:40:36;6.35;;;3.40;;
42018;SDS011;27703;51.980;5.848;2023-07-22T01:43:02;4.20;;;2.85;;
42018;SDS011;27703;51.980;5.848;2023-07-22T01:45:27;4.32;;;3.05;;
42018;SDS011;27703;51.980;5.848;2023-07-22T01:47:53;6.43;;;4.10;;
42018;SDS011;27703;51.980;5.848;2023-07-22T01:50:18;6.03;;;4.18;;
42018;SDS011;27703;51.980;5.848;2023-07-22T01:52:44;4.45;;;3.20;;
42018;SDS011;27703;51.980;5.848;2023-07-22T01:55:11;6.10;;;4.28;;
42018;SDS011;27703;51.980;5.848;2023-07-22T01:57:37;5.03;;;3.92;;
42018;SDS011;27703;51.980;5.848;2023-07-22T02:00:04;6.75;;;4.18;;
42018;SDS011;27703;51.980;5.848;2023-07-22T02:02:30;7.45;;;4.47;;
42018;SDS011;27703;51.980;5.848;2023-07-22T02:04:56;7.55;;;4.60;;
42018;SDS011;27703;51.980;5.848;2023-07-22T02:07:21;7.18;;;4.53;;
42018;SDS011;27703;51.980;5.848;2023-07-22T02:09:47;6.75;;;4.68;;
42018;SDS011;27703;51.980;5.848;2023-07-22T02:12:12;7.88;;;5.00;;
42018;SDS011;27703;51.980;5.848;2023-07-22T02:14:38;7.03;;;5.38;;
42018;SDS011;27703;51.980;5.848;2023-07-22T02:17:04;6.43;;;5.10;;
42018;SDS011;27703;51.980;5.848;2023-07-22T02:19:30;8.60;;;5.68;;
42018;SDS011;27703;51.980;5.848;2023-07-22T02:21:55;8.95;;;6.28;;
42018;SDS011;27703;51.980;5.848;2023-07-22T02:24:21;9.50;;;6.30;;
42018;SDS011;27703;51.980;5.848;2023-07-22T02:26:48;7.25;;;4.93;;
42018;SDS011;27703;51.980;5.848;2023-07-22T02:29:13;9.70;;;5.88;;
42018;SDS011;27703;51.980;5.848;2023-07-22T02:31:39;7.63;;;4.80;;
42018;SDS011;27703;51.980;5.848;2023-07-22T02:34:04;8.88;;;5.30;;
42018;SDS011;27703;51.980;5.848;2023-07-22T02:36:30;7.18;;;5.32;;
42018;SDS011;27703;51.980;5.848;2023-07-22T02:38:56;7.85;;;5.32;;
42018;SDS011;27703;51.980;5.848;2023-07-22T02:41:22;7.28;;;5.60;;
42018;SDS011;27703;51.980;5.848;2023-07-22T02:43:47;8.52;;;5.75;;
42018;SDS011;27703;51.980;5.848;2023-07-22T02:46:13;7.53;;;5.43;;
42018;SDS011;27703;51.980;5.848;2023-07-22T02:48:38;8.50;;;5.68;;
42018;SDS011;27703;51.980;5.848;2023-07-22T02:51:05;8.80;;;5.78;;
42018;SDS011;27703;51.980;5.848;2023-07-22T02:53:34;7.97;;;6.32;;
42018;SDS011;27703;51.980;5.848;2023-07-22T02:56:04;9.15;;;7.57;;
42018;SDS011;27703;51.980;5.848;2023-07-22T02:58:32;8.82;;;6.45;;
42018;SDS011;27703;51.980;5.848;2023-07-22T03:00:58;9.27;;;5.65;;
42018;SDS011;27703;51.980;5.848;2023-07-22T03:03:24;6.82;;;5.00;;
42018;SDS011;27703;51.980;5.848;2023-07-22T03:05:50;7.85;;;5.40;;
42018;SDS011;27703;51.980;5.848;2023-07-22T03:08:16;7.68;;;5.53;;
42018;SDS011;27703;51.980;5.848;2023-07-22T03:10:42;8.98;;;6.43;;
42018;SDS011;27703;51.980;5.848;2023-07-22T03:13:13;9.23;;;6.60;;
42018;SDS011;27703;51.980;5.848;2023-07-22T03:15:42;10.90;;;6.65;;
42018;SDS011;27703;51.980;5.848;2023-07-22T03:18:08;8.25;;;6.78;;
42018;SDS011;27703;51.980;5.848;2023-07-22T03:20:35;12.38;;;7.43;;
42018;SDS011;27703;51.980;5.848;2023-07-22T03:23:01;11.65;;;7.25;;
42018;SDS011;27703;51.980;5.848;2023-07-22T03:25:27;11.88;;;8.52;;
42018;SDS011;27703;51.980;5.848;2023-07-22T03:27:53;11.52;;;6.55;;
42018;SDS011;27703;51.980;5.848;2023-07-22T03:30:21;9.60;;;7.22;;
42018;SDS011;27703;51.980;5.848;2023-07-22T03:32:48;10.27;;;7.65;;
42018;SDS011;27703;51.980;5.848;2023-07-22T03:35:15;11.18;;;7.53;;
42018;SDS011;27703;51.980;5.848;2023-07-22T03:37:42;9.68;;;7.18;;
42018;SDS011;27703;51.980;5.848;2023-07-22T03:40:08;10.95;;;7.63;;
42018;SDS011;27703;51.980;5.848;2023-07-22T03:42:39;10.63;;;7.70;;
42018;SDS011;27703;51.980;5.848;2023-07-22T03:45:06;9.65;;;6.68;;
42018;SDS011;27703;51.980;5.848;2023-07-22T03:47:33;10.00;;;7.07;;
42018;SDS011;27703;51.980;5.848;2023-07-22T03:49:59;13.15;;;8.00;;
42018;SDS011;27703;51.980;5.848;2023-07-22T03:52:24;10.38;;;7.38;;
42018;SDS011;27703;51.980;5.848;2023-07-22T03:54:50;11.73;;;8.40;;
42018;SDS011;27703;51.980;5.848;2023-07-22T03:57:15;10.95;;;6.85;;
42018;SDS011;27703;51.980;5.848;2023-07-22T03:59:41;13.05;;;8.45;;
42018;SDS011;27703;51.980;5.848;2023-07-22T04:02:06;10.85;;;7.05;;
42018;SDS011;27703;51.980;5.848;2023-07-22T04:04:33;9.45;;;6.63;;
42018;SDS011;27703;51.980;5.848;2023-07-22T04:06:58;10.65;;;7.35;;
42018;SDS011;27703;51.980;5.848;2023-07-22T04:09:25;13.57;;;7.78;;
42018;SDS011;27703;51.980;5.848;2023-07-22T04:11:52;11.07;;;7.43;;
42018;SDS011;27703;51.980;5.848;2023-07-22T04:14:17;10.98;;;6.82;;
42018;SDS011;27703;51.980;5.848;2023-07-22T04:16:43;9.95;;;7.03;;
42018;SDS011;27703;51.980;5.848;2023-07-22T04:19:08;11.95;;;8.13;;
42018;SDS011;27703;51.980;5.848;2023-07-22T04:21:34;11.05;;;7.68;;
42018;SDS011;27703;51.980;5.848;2023-07-22T04:23:59;13.98;;;7.30;;
42018;SDS011;27703;51.980;5.848;2023-07-22T04:26:25;10.07;;;6.90;;
42018;SDS011;27703;51.980;5.848;2023-07-22T04:28:50;11.02;;;7.18;;
42018;SDS011;27703;51.980;5.848;2023-07-22T04:31:16;11.93;;;7.38;;
42018;SDS011;27703;51.980;5.848;2023-07-22T04:33:43;13.38;;;7.82;;
42018;SDS011;27703;51.980;5.848;2023-07-22T04:36:09;13.20;;;8.07;;
42018;SDS011;27703;51.980;5.848;2023-07-22T04:38:34;11.57;;;7.50;;
42018;SDS011;27703;51.980;5.848;2023-07-22T04:41:00;11.20;;;7.80;;
42018;SDS011;27703;51.980;5.848;2023-07-22T04:43:28;13.50;;;8.30;;
42018;SDS011;27703;51.980;5.848;2023-07-22T04:45:54;13.85;;;8.75;;
42018;SDS011;27703;51.980;5.848;2023-07-22T04:48:21;13.82;;;8.10;;
42018;SDS011;27703;51.980;5.848;2023-07-22T04:50:49;13.18;;;9.00;;
42018;SDS011;27703;51.980;5.848;2023-07-22T04:53:16;13.02;;;7.88;;
42018;SDS011;27703;51.980;5.848;2023-07-22T04:55:42;11.63;;;8.50;;
42018;SDS011;27703;51.980;5.848;2023-07-22T04:58:08;13.80;;;8.85;;
42018;SDS011;27703;51.980;5.848;2023-07-22T05:00:35;12.77;;;8.48;;
42018;SDS011;27703;51.980;5.848;2023-07-22T05:03:02;13.65;;;9.00;;
42018;SDS011;27703;51.980;5.848;2023-07-22T05:05:28;12.23;;;8.63;;
42018;SDS011;27703;51.980;5.848;2023-07-22T05:07:54;13.63;;;8.57;;
42018;SDS011;27703;51.980;5.848;2023-07-22T05:10:19;13.25;;;9.07;;
42018;SDS011;27703;51.980;5.848;2023-07-22T05:12:45;15.55;;;9.60;;
42018;SDS011;27703;51.980;5.848;2023-07-22T05:15:11;13.43;;;7.65;;
42018;SDS011;27703;51.980;5.848;2023-07-22T05:17:37;12.18;;;8.68;;
42018;SDS011;27703;51.980;5.848;2023-07-22T05:20:03;12.77;;;8.32;;
42018;SDS011;27703;51.980;5.848;2023-07-22T05:22:31;12.90;;;8.38;;
42018;SDS011;27703;51.980;5.848;2023-07-22T05:24:57;11.93;;;7.60;;
42018;SDS011;27703;51.980;5.848;2023-07-22T05:27:22;13.25;;;7.97;;
42018;SDS011;27703;51.980;5.848;2023-07-22T05:29:48;16.55;;;8.95;;
42018;SDS011;27703;51.980;5.848;2023-07-22T05:32:14;15.52;;;9.43;;
42018;SDS011;27703;51.980;5.848;2023-07-22T05:34:40;14.63;;;8.95;;
42018;SDS011;27703;51.980;5.848;2023-07-22T05:37:05;16.25;;;8.05;;
42018;SDS011;27703;51.980;5.848;2023-07-22T05:39:31;11.90;;;8.10;;
42018;SDS011;27703;51.980;5.848;2023-07-22T05:41:56;17.02;;;10.15;;
42018;SDS011;27703;51.980;5.848;2023-07-22T05:44:22;14.68;;;9.77;;
42018;SDS011;27703;51.980;5.848;2023-07-22T05:46:48;15.00;;;9.30;;
42018;SDS011;27703;51.980;5.848;2023-07-22T05:49:13;13.65;;;9.98;;
42018;SDS011;27703;51.980;5.848;2023-07-22T05:51:39;21.02;;;12.90;;
42018;SDS011;27703;51.980;5.848;2023-07-22T05:54:05;19.88;;;12.48;;
42018;SDS011;27703;51.980;5.848;2023-07-22T05:56:30;19.48;;;11.95;;
42018;SDS011;27703;51.980;5.848;2023-07-22T05:58:56;15.65;;;10.25;;
42018;SDS011;27703;51.980;5.848;2023-07-22T06:01:23;23.17;;;11.68;;
42018;SDS011;27703;51.980;5.848;2023-07-22T06:03:49;19.90;;;13.30;;
42018;SDS011;27703;51.980;5.848;2023-07-22T06:06:15;22.88;;;14.10;;
42018;SDS011;27703;51.980;5.848;2023-07-22T06:08:41;19.10;;;13.73;;
42018;SDS011;27703;51.980;5.848;2023-07-22T06:11:06;19.33;;;11.68;;
42018;SDS011;27703;51.980;5.848;2023-07-22T06:13:32;19.73;;;13.50;;
42018;SDS011;27703;51.980;5.848;2023-07-22T06:15:57;18.67;;;12.25;;
42018;SDS011;27703;51.980;5.848;2023-07-22T06:18:23;20.42;;;13.63;;
42018;SDS011;27703;51.980;5.848;2023-07-22T06:20:49;20.30;;;14.02;;
42018;SDS011;27703;51.980;5.848;2023-07-22T06:23:15;23.25;;;13.73;;
42018;SDS011;27703;51.980;5.848;2023-07-22T06:25:40;21.98;;;13.02;;
42018;SDS011;27703;51.980;5.848;2023-07-22T06:28:06;18.63;;;12.60;;
42018;SDS011;27703;51.980;5.848;2023-07-22T06:30:32;20.40;;;13.02;;
42018;SDS011;27703;51.980;5.848;2023-07-22T06:32:57;23.23;;;14.80;;
42018;SDS011;27703;51.980;5.848;2023-07-22T06:35:23;21.02;;;14.43;;
42018;SDS011;27703;51.980;5.848;2023-07-22T06:37:48;19.25;;;12.70;;
42018;SDS011;27703;51.980;5.848;2023-07-22T06:40:14;20.48;;;12.85;;
42018;SDS011;27703;51.980;5.848;2023-07-22T06:42:40;20.15;;;11.65;;
42018;SDS011;27703;51.980;5.848;2023-07-22T06:45:05;22.65;;;13.07;;
42018;SDS011;27703;51.980;5.848;2023-07-22T06:47:31;17.95;;;11.77;;
42018;SDS011;27703;51.980;5.848;2023-07-22T06:49:57;19.63;;;12.52;;
42018;SDS011;27703;51.980;5.848;2023-07-22T06:52:23;22.80;;;12.95;;
42018;SDS011;27703;51.980;5.848;2023-07-22T06:54:49;23.02;;;14.30;;
42018;SDS011;27703;51.980;5.848;2023-07-22T06:57:15;20.98;;;11.88;;
42018;SDS011;27703;51.980;5.848;2023-07-22T06:59:40;19.55;;;12.63;;
42018;SDS011;27703;51.980;5.848;2023-07-22T07:02:06;24.17;;;12.73;;
42018;SDS011;27703;51.980;5.848;2023-07-22T07:04:32;19.20;;;12.95;;
42018;SDS011;27703;51.980;5.848;2023-07-22T07:06:58;19.75;;;11.93;;
42018;SDS011;27703;51.980;5.848;2023-07-22T07:09:24;18.70;;;12.10;;
42018;SDS011;27703;51.980;5.848;2023-07-22T07:11:50;21.50;;;11.27;;
42018;SDS011;27703;51.980;5.848;2023-07-22T07:14:16;15.65;;;10.48;;
42018;SDS011;27703;51.980;5.848;2023-07-22T07:16:42;19.65;;;11.48;;
42018;SDS011;27703;51.980;5.848;2023-07-22T07:19:08;18.20;;;11.57;;
42018;SDS011;27703;51.980;5.848;2023-07-22T07:21:34;18.88;;;12.60;;
42018;SDS011;27703;51.980;5.848;2023-07-22T07:23:59;15.75;;;10.80;;
42018;SDS011;27703;51.980;5.848;2023-07-22T07:26:25;21.20;;;12.00;;
42018;SDS011;27703;51.980;5.848;2023-07-22T07:28:51;16.90;;;10.55;;
42018;SDS011;27703;51.980;5.848;2023-07-22T07:31:17;18.50;;;10.23;;
42018;SDS011;27703;51.980;5.848;2023-07-22T07:33:43;19.80;;;11.82;;
42018;SDS011;27703;51.980;5.848;2023-07-22T07:36:08;24.55;;;11.95;;
42018;SDS011;27703;51.980;5.848;2023-07-22T07:38:34;17.90;;;10.98;;
42018;SDS011;27703;51.980;5.848;2023-07-22T07:41:01;20.25;;;11.70;;
42018;SDS011;27703;51.980;5.848;2023-07-22T07:43:28;18.10;;;10.27;;
42018;SDS011;27703;51.980;5.848;2023-07-22T07:46:13;18.40;;;10.73;;
42018;SDS011;27703;51.980;5.848;2023-07-22T07:48:39;15.70;;;10.07;;
42018;SDS011;27703;51.980;5.848;2023-07-22T07:51:05;16.13;;;9.90;;
42018;SDS011;27703;51.980;5.848;2023-07-22T07:53:31;13.98;;;10.05;;
42018;SDS011;27703;51.980;5.848;2023-07-22T07:55:56;13.73;;;8.80;;
42018;SDS011;27703;51.980;5.848;2023-07-22T07:58:22;13.95;;;9.27;;
42018;SDS011;27703;51.980;5.848;2023-07-22T08:00:47;16.17;;;9.05;;
42018;SDS011;27703;51.980;5.848;2023-07-22T08:03:13;11.35;;;8.75;;
42018;SDS011;27703;51.980;5.848;2023-07-22T08:05:39;18.98;;;9.15;;
42018;SDS011;27703;51.980;5.848;2023-07-22T08:08:04;12.93;;;8.00;;
42018;SDS011;27703;51.980;5.848;2023-07-22T08:10:30;16.35;;;9.73;;
42018;SDS011;27703;51.980;5.848;2023-07-22T08:12:56;13.00;;;7.88;;
42018;SDS011;27703;51.980;5.848;2023-07-22T08:15:21;14.35;;;7.50;;
42018;SDS011;27703;51.980;5.848;2023-07-22T08:17:47;12.90;;;8.38;;
42018;SDS011;27703;51.980;5.848;2023-07-22T08:20:12;15.68;;;8.95;;
42018;SDS011;27703;51.980;5.848;2023-07-22T08:22:38;14.02;;;8.75;;
42018;SDS011;27703;51.980;5.848;2023-07-22T08:25:04;11.10;;;6.90;;
42018;SDS011;27703;51.980;5.848;2023-07-22T08:27:30;12.98;;;7.38;;
42018;SDS011;27703;51.980;5.848;2023-07-22T08:29:55;12.82;;;8.88;;
42018;SDS011;27703;51.980;5.848;2023-07-22T08:32:21;14.75;;;8.55;;
42018;SDS011;27703;51.980;5.848;2023-07-22T08:34:46;10.52;;;6.93;;
42018;SDS011;27703;51.980;5.848;2023-07-22T08:37:12;11.07;;;6.75;;
42018;SDS011;27703;51.980;5.848;2023-07-22T08:39:37;10.15;;;7.03;;
42018;SDS011;27703;51.980;5.848;2023-07-22T08:42:03;14.48;;;7.68;;
42018;SDS011;27703;51.980;5.848;2023-07-22T08:44:31;12.95;;;7.70;;
42018;SDS011;27703;51.980;5.848;2023-07-22T08:47:01;12.98;;;8.13;;
42018;SDS011;27703;51.980;5.848;2023-07-22T08:49:29;12.77;;;8.23;;
42018;SDS011;27703;51.980;5.848;2023-07-22T08:51:55;11.88;;;7.80;;
42018;SDS011;27703;51.980;5.848;2023-07-22T08:54:24;9.85;;;7.72;;
42018;SDS011;27703;51.980;5.848;2023-07-22T08:56:50;11.05;;;6.55;;
42018;SDS011;27703;51.980;5.848;2023-07-22T08:59:19;11.05;;;7.13;;
42018;SDS011;27703;51.980;5.848;2023-07-22T09:01:45;14.98;;;7.72;;
42018;SDS011;27703;51.980;5.848;2023-07-22T09:04:13;12.32;;;7.85;;
42018;SDS011;27703;51.980;5.848;2023-07-22T09:06:39;9.38;;;6.53;;
42018;SDS011;27703;51.980;5.848;2023-07-22T09:09:06;10.52;;;6.40;;
42018;SDS011;27703;51.980;5.848;2023-07-22T09:11:33;10.88;;;6.82;;
42018;SDS011;27703;51.980;5.848;2023-07-22T09:14:00;12.35;;;7.55;;
42018;SDS011;27703;51.980;5.848;2023-07-22T09:16:27;10.10;;;6.07;;
42018;SDS011;27703;51.980;5.848;2023-07-22T09:18:55;9.50;;;5.25;;
42018;SDS011;27703;51.980;5.848;2023-07-22T09:21:22;8.45;;;5.47;;
42018;SDS011;27703;51.980;5.848;2023-07-22T09:23:48;7.25;;;4.93;;
42018;SDS011;27703;51.980;5.848;2023-07-22T09:26:15;8.18;;;4.38;;
42018;SDS011;27703;51.980;5.848;2023-07-22T09:28:57;9.55;;;4.32;;
42018;SDS011;27703;51.980;5.848;2023-07-22T09:31:25;7.85;;;4.13;;
42018;SDS011;27703;51.980;5.848;2023-07-22T09:33:51;8.20;;;4.43;;
42018;SDS011;27703;51.980;5.848;2023-07-22T09:36:20;8.82;;;4.72;;
42018;SDS011;27703;51.980;5.848;2023-07-22T09:38:58;9.55;;;3.92;;
42018;SDS011;27703;51.980;5.848;2023-07-22T09:43:55;7.43;;;4.07;;
42018;SDS011;27703;51.980;5.848;2023-07-22T09:46:21;5.68;;;3.85;;
42018;SDS011;27703;51.980;5.848;2023-07-22T09:48:55;5.82;;;3.58;;
42018;SDS011;27703;51.980;5.848;2023-07-22T09:51:21;4.38;;;3.17;;
42018;SDS011;27703;51.980;5.848;2023-07-22T09:53:47;5.65;;;3.53;;
42018;SDS011;27703;51.980;5.848;2023-07-22T09:56:24;9.55;;;4.43;;
42018;SDS011;27703;51.980;5.848;2023-07-22T09:58:50;6.18;;;3.88;;
42018;SDS011;27703;51.980;5.848;2023-07-22T10:01:19;6.35;;;2.75;;
42018;SDS011;27703;51.980;5.848;2023-07-22T10:03:47;6.28;;;3.10;;
42018;SDS011;27703;51.980;5.848;2023-07-22T10:06:21;6.78;;;3.67;;
42018;SDS011;27703;51.980;5.848;2023-07-22T10:08:57;7.28;;;4.50;;
42018;SDS011;27703;51.980;5.848;2023-07-22T10:11:34;5.82;;;3.58;;
42018;SDS011;27703;51.980;5.848;2023-07-22T10:14:01;7.43;;;4.10;;
42018;SDS011;27703;51.980;5.848;2023-07-22T10:16:27;7.97;;;4.68;;
42018;SDS011;27703;51.980;5.848;2023-07-22T10:18:53;6.85;;;3.63;;
42018;SDS011;27703;51.980;5.848;2023-07-22T10:21:20;6.47;;;3.83;;
42018;SDS011;27703;51.980;5.848;2023-07-22T10:23:46;10.30;;;3.92;;
42018;SDS011;27703;51.980;5.848;2023-07-22T10:26:16;7.95;;;3.67;;
42018;SDS011;27703;51.980;5.848;2023-07-22T10:28:46;7.13;;;3.63;;
42018;SDS011;27703;51.980;5.848;2023-07-22T10:31:13;8.82;;;3.97;;
42018;SDS011;27703;51.980;5.848;2023-07-22T10:33:39;6.28;;;3.45;;
42018;SDS011;27703;51.980;5.848;2023-07-22T10:36:06;7.28;;;3.60;;
42018;SDS011;27703;51.980;5.848;2023-07-22T10:38:38;6.18;;;3.72;;
42018;SDS011;27703;51.980;5.848;2023-07-22T10:41:11;5.15;;;3.38;;
42018;SDS011;27703;51.980;5.848;2023-07-22T10:43:38;14.05;;;3.33;;
42018;SDS011;27703;51.980;5.848;2023-07-22T10:46:11;7.45;;;2.67;;
42018;SDS011;27703;51.980;5.848;2023-07-22T10:48:38;6.45;;;2.00;;
42018;SDS011;27703;51.980;5.848;2023-07-22T10:51:12;6.55;;;2.47;;
42018;SDS011;27703;51.980;5.848;2023-07-22T10:53:48;4.43;;;2.40;;
42018;SDS011;27703;51.980;5.848;2023-07-22T10:56:17;4.00;;;2.38;;
42018;SDS011;27703;51.980;5.848;2023-07-22T11:07:00;3.65;;;2.38;;
42018;SDS011;27703;51.980;5.848;2023-07-22T11:16:53;6.32;;;2.10;;
42018;SDS011;27703;51.980;5.848;2023-07-22T11:19:22;4.80;;;1.40;;
42018;SDS011;27703;51.980;5.848;2023-07-22T11:21:49;3.00;;;1.15;;
42018;SDS011;27703;51.980;5.848;2023-07-22T11:24:16;4.30;;;1.85;;
42018;SDS011;27703;51.980;5.848;2023-07-22T11:26:42;3.70;;;1.60;;
42018;SDS011;27703;51.980;5.848;2023-07-22T11:29:09;5.75;;;1.75;;
42018;SDS011;27703;51.980;5.848;2023-07-22T11:31:36;4.88;;;1.70;;
42018;SDS011;27703;51.980;5.848;2023-07-22T11:34:07;3.60;;;1.45;;
42018;SDS011;27703;51.980;5.848;2023-07-22T11:36:39;4.82;;;1.73;;
42018;SDS011;27703;51.980;5.848;2023-07-22T11:39:08;3.47;;;1.13;;
42018;SDS011;27703;51.980;5.848;2023-07-22T11:41:36;2.80;;;1.08;;
42018;SDS011;27703;51.980;5.848;2023-07-22T11:44:03;10.13;;;2.17;;
42018;SDS011;27703;51.980;5.848;2023-07-22T11:46:34;5.20;;;1.90;;
42018;SDS011;27703;51.980;5.848;2023-07-22T11:49:11;2.55;;;1.38;;
42018;SDS011;27703;51.980;5.848;2023-07-22T11:51:38;4.60;;;1.83;;
42018;SDS011;27703;51.980;5.848;2023-07-22T11:54:07;3.05;;;1.00;;
42018;SDS011;27703;51.980;5.848;2023-07-22T11:56:33;2.30;;;0.98;;
42018;SDS011;27703;51.980;5.848;2023-07-22T11:58:58;2.60;;;1.13;;
42018;SDS011;27703;51.980;5.848;2023-07-22T12:01:24;4.00;;;0.90;;
42018;SDS011;27703;51.980;5.848;2023-07-22T12:03:58;5.32;;;1.33;;
42018;SDS011;27703;51.980;5.848;2023-07-22T12:06:26;1.95;;;0.70;;
42018;SDS011;27703;51.980;5.848;2023-07-22T12:08:52;4.00;;;0.80;;
42018;SDS011;27703;51.980;5.848;2023-07-22T12:11:19;1.83;;;0.82;;
42018;SDS011;27703;51.980;5.848;2023-07-22T12:13:46;1.85;;;0.70;;
42018;SDS011;27703;51.980;5.848;2023-07-22T12:16:20;5.45;;;0.88;;
42018;SDS011;27703;51.980;5.848;2023-07-22T12:18:48;2.72;;;0.77;;
42018;SDS011;27703;51.980;5.848;2023-07-22T12:21:14;3.47;;;1.13;;
42018;SDS011;27703;51.980;5.848;2023-07-22T12:23:40;3.53;;;0.85;;
42018;SDS011;27703;51.980;5.848;2023-07-22T12:26:07;2.50;;;0.82;;
42018;SDS011;27703;51.980;5.848;2023-07-22T12:28:33;4.38;;;0.88;;
42018;SDS011;27703;51.980;5.848;2023-07-22T12:30:59;2.72;;;0.60;;
42018;SDS011;27703;51.980;5.848;2023-07-22T12:33:25;2.13;;;0.65;;
42018;SDS011;27703;51.980;5.848;2023-07-22T12:35:53;1.83;;;0.63;;
42018;SDS011;27703;51.980;5.848;2023-07-22T12:38:19;2.25;;;0.55;;
42018;SDS011;27703;51.980;5.848;2023-07-22T12:40:45;1.63;;;0.70;;
42018;SDS011;27703;51.980;5.848;2023-07-22T12:43:11;2.80;;;0.70;;
42018;SDS011;27703;51.980;5.848;2023-07-22T12:45:36;1.48;;;0.73;;
42018;SDS011;27703;51.980;5.848;2023-07-22T12:48:02;2.63;;;0.85;;
42018;SDS011;27703;51.980;5.848;2023-07-22T12:50:29;4.18;;;0.80;;
42018;SDS011;27703;51.980;5.848;2023-07-22T12:52:55;5.38;;;0.80;;
42018;SDS011;27703;51.980;5.848;2023-07-22T12:55:20;1.98;;;0.50;;
42018;SDS011;27703;51.980;5.848;2023-07-22T12:57:47;1.77;;;0.50;;
42018;SDS011;27703;51.980;5.848;2023-07-22T13:00:12;1.00;;;0.40;;
42018;SDS011;27703;51.980;5.848;2023-07-22T13:02:38;2.25;;;0.68;;
42018;SDS011;27703;51.980;5.848;2023-07-22T13:05:04;1.63;;;0.50;;
42018;SDS011;27703;51.980;5.848;2023-07-22T13:07:31;1.88;;;0.60;;
42018;SDS011;27703;51.980;5.848;2023-07-22T13:09:57;2.00;;;0.70;;
42018;SDS011;27703;51.980;5.848;2023-07-22T13:12:24;1.42;;;0.50;;
42018;SDS011;27703;51.980;5.848;2023-07-22T13:14:49;1.40;;;0.45;;
42018;SDS011;27703;51.980;5.848;2023-07-22T13:17:15;1.45;;;0.52;;
42018;SDS011;27703;51.980;5.848;2023-07-22T13:19:40;2.08;;;0.80;;
42018;SDS011;27703;51.980;5.848;2023-07-22T13:22:06;3.53;;;0.70;;
42018;SDS011;27703;51.980;5.848;2023-07-22T13:24:32;2.17;;;0.90;;
42018;SDS011;27703;51.980;5.848;2023-07-22T13:26:57;2.42;;;0.60;;
42018;SDS011;27703;51.980;5.848;2023-07-22T13:29:23;3.80;;;0.70;;
42018;SDS011;27703;51.980;5.848;2023-07-22T13:31:48;1.60;;;0.40;;
42018;SDS011;27703;51.980;5.848;2023-07-22T13:34:14;2.38;;;0.45;;
42018;SDS011;27703;51.980;5.848;2023-07-22T13:36:40;2.00;;;0.70;;
42018;SDS011;27703;51.980;5.848;2023-07-22T13:39:06;1.58;;;0.60;;
42018;SDS011;27703;51.980;5.848;2023-07-22T13:41:31;1.15;;;0.52;;
42018;SDS011;27703;51.980;5.848;2023-07-22T13:43:57;1.65;;;0.60;;
42018;SDS011;27703;51.980;5.848;2023-07-22T13:46:22;2.83;;;0.60;;
42018;SDS011;27703;51.980;5.848;2023-07-22T13:48:48;2.55;;;0.88;;
42018;SDS011;27703;51.980;5.848;2023-07-22T13:51:13;1.48;;;0.50;;
42018;SDS011;27703;51.980;5.848;2023-07-22T13:53:39;3.67;;;0.73;;
42018;SDS011;27703;51.980;5.848;2023-07-22T13:56:04;7.82;;;1.40;;
42018;SDS011;27703;51.980;5.848;2023-07-22T13:58:30;1.83;;;0.50;;
42018;SDS011;27703;51.980;5.848;2023-07-22T14:00:55;1.33;;;0.70;;
42018;SDS011;27703;51.980;5.848;2023-07-22T14:03:21;4.47;;;1.00;;
42018;SDS011;27703;51.980;5.848;2023-07-22T14:05:47;1.42;;;0.52;;
42018;SDS011;27703;51.980;5.848;2023-07-22T14:08:12;2.15;;;0.70;;
42018;SDS011;27703;51.980;5.848;2023-07-22T14:10:38;2.90;;;0.95;;
42018;SDS011;27703;51.980;5.848;2023-07-22T14:13:03;1.67;;;0.60;;
42018;SDS011;27703;51.980;5.848;2023-07-22T14:15:29;2.08;;;0.70;;
42018;SDS011;27703;51.980;5.848;2023-07-22T14:17:55;4.03;;;0.77;;
42018;SDS011;27703;51.980;5.848;2023-07-22T14:20:20;2.13;;;0.65;;
42018;SDS011;27703;51.980;5.848;2023-07-22T14:22:47;2.22;;;0.80;;
42018;SDS011;27703;51.980;5.848;2023-07-22T14:25:14;4.88;;;0.88;;
42018;SDS011;27703;51.980;5.848;2023-07-22T14:27:40;2.95;;;0.70;;
42018;SDS011;27703;51.980;5.848;2023-07-22T14:30:07;2.30;;;0.85;;
42018;SDS011;27703;51.980;5.848;2023-07-22T14:32:33;1.65;;;0.50;;
42018;SDS011;27703;51.980;5.848;2023-07-22T14:34:58;1.77;;;0.70;;
42018;SDS011;27703;51.980;5.848;2023-07-22T14:37:24;5.82;;;0.70;;
42018;SDS011;27703;51.980;5.848;2023-07-22T14:39:49;2.80;;;0.70;;
42018;SDS011;27703;51.980;5.848;2023-07-22T14:42:15;1.85;;;0.50;;
42018;SDS011;27703;51.980;5.848;2023-07-22T14:44:41;1.30;;;0.52;;
42018;SDS011;27703;51.980;5.848;2023-07-22T14:47:06;3.08;;;0.50;;
42018;SDS011;27703;51.980;5.848;2023-07-22T14:49:32;2.42;;;0.50;;
42018;SDS011;27703;51.980;5.848;2023-07-22T14:51:57;1.70;;;0.43;;
42018;SDS011;27703;51.980;5.848;2023-07-22T14:54:23;2.90;;;0.57;;